Time;durP1;ratioP1;P1;durP2;ratioP2;P2;SDS_P1;SDS_P2;PMS_P1;PMS_P2;Temp;Humidity;BMP_temperature;BMP_pressure;BME280_temperature;BME280_humidity;BME280_pressure;Samples;Min_cycle;Max_cycle;Signal;HPM_P1;HPM_P2
2022/06/09 00:01:42;;;;;;;;;4.00;4.00;;;;;;;;5094225;27;45297;-80
2022/06/09 00:04:09;;;;;;;;;8.00;5.00;;;;;;;;5087173;27;46091;-82
2022/06/09 00:06:37;;;;;;;;;3.00;3.00;;;;;;;;5082523;27;48149;-81
2022/06/09 00:09:04;;;;;;;;;3.00;3.00;;;;;;;;5091350;27;45511;-81
2022/06/09 00:11:31;;;;;;;;;6.00;3.00;;;;;;;;5088016;27;45515;-81
2022/06/09 00:13:56;;;;;;;;;7.67;3.00;;;;;;;;5087666;27;45320;-82
2022/06/09 00:16:21;;;;;;;;;5.67;2.00;;;;;;;;5098338;27;47564;-81
2022/06/09 00:18:47;;;;;;;;;2.00;2.00;;;;;;;;5089731;27;45511;-81
2022/06/09 00:21:12;;;;;;;;;3.67;2.67;;;;;;;;5090315;27;45227;-80
2022/06/09 00:23:37;;;;;;;;;4.00;4.00;;;;;;;;5090900;27;45147;-80
2022/06/09 00:26:03;;;;;;;;;4.67;3.00;;;;;;;;5096184;27;46184;-81
2022/06/09 00:28:28;;;;;;;;;3.00;3.00;;;;;;;;5088056;27;45416;-81
2022/06/09 00:30:53;;;;;;;;;5.00;5.00;;;;;;;;5097632;27;45523;-80
2022/06/09 00:33:19;;;;;;;;;5.00;3.33;;;;;;;;5101273;27;46205;-80
2022/06/09 00:35:44;;;;;;;;;7.00;4.00;;;;;;;;5095608;27;45289;-80
2022/06/09 00:38:09;;;;;;;;;6.00;3.67;;;;;;;;5084142;27;45307;-80
2022/06/09 00:40:35;;;;;;;;;3.33;3.00;;;;;;;;5083578;27;45231;-80
2022/06/09 00:43:01;;;;;;;;;5.00;3.00;;;;;;;;5079478;27;47056;-80
2022/06/09 00:45:34;;;;;;;;;3.33;3.00;;;;;;;;5082973;27;48376;-80
2022/06/09 00:48:08;;;;;;;;;3.00;2.67;;;;;;;;5081939;27;45367;-80
2022/06/09 00:50:36;;;;;;;;;5.00;4.00;;;;;;;;5089704;27;45375;-81
2022/06/09 00:53:04;;;;;;;;;5.67;4.67;;;;;;;;5086761;27;45378;-80
2022/06/09 00:55:31;;;;;;;;;3.33;3.33;;;;;;;;5091441;27;45441;-79
2022/06/09 00:58:02;;;;;;;;;4.00;3.33;;;;;;;;5087651;27;45299;-80
2022/06/09 01:00:34;;;;;;;;;3.00;3.00;;;;;;;;5094330;27;45264;-81
2022/06/09 01:03:00;;;;;;;;;6.00;3.00;;;;;;;;5088686;27;45731;-80
2022/06/09 01:05:26;;;;;;;;;5.33;3.00;;;;;;;;5089847;27;47275;-80
2022/06/09 01:07:54;;;;;;;;;7.00;3.00;;;;;;;;5094840;27;45449;-80
2022/06/09 01:10:19;;;;;;;;;4.00;2.00;;;;;;;;5095266;27;45305;-80
2022/06/09 01:12:45;;;;;;;;;3.00;3.00;;;;;;;;5088392;27;45456;-80
2022/06/09 01:15:11;;;;;;;;;5.00;3.00;;;;;;;;5097396;27;45274;-80
2022/06/09 01:17:46;;;;;;;;;4.00;4.00;;;;;;;;5091775;27;45423;-80
2022/06/09 01:20:20;;;;;;;;;5.33;3.67;;;;;;;;5087061;27;45267;-81
2022/06/09 01:23:04;;;;;;;;;4.00;2.00;;;;;;;;5086964;27;45490;-81
2022/06/09 01:25:48;;;;;;;;;2.00;1.67;;;;;;;;5083850;27;45588;-81
2022/06/09 01:28:16;;;;;;;;;5.00;3.33;;;;;;;;5080732;27;45470;-80
2022/06/09 01:30:46;;;;;;;;;2.00;2.00;;;;;;;;5094747;27;45294;-79
2022/06/09 01:33:32;;;;;;;;;3.67;2.00;;;;;;;;5090175;27;45365;-80
2022/06/09 01:36:14;;;;;;;;;5.33;3.33;;;;;;;;5090910;27;45592;-80
2022/06/09 01:38:44;;;;;;;;;4.67;3.33;;;;;;;;5088411;27;45350;-79
2022/06/09 01:41:09;;;;;;;;;4.00;4.00;;;;;;;;5097512;27;45380;-80
2022/06/09 01:43:34;;;;;;;;;5.67;2.00;;;;;;;;5089927;27;45335;-80
2022/06/09 01:46:03;;;;;;;;;3.00;3.00;;;;;;;;5086851;27;45366;-80
2022/06/09 01:48:28;;;;;;;;;4.00;2.00;;;;;;;;5103259;27;45244;-79
2022/06/09 01:50:59;;;;;;;;;3.67;3.67;;;;;;;;5100827;27;45385;-80
2022/06/09 01:53:34;;;;;;;;;5.00;4.00;;;;;;;;5090874;27;46052;-79
2022/06/09 01:56:06;;;;;;;;;5.33;4.00;;;;;;;;5101076;27;46548;-80
2022/06/09 01:58:35;;;;;;;;;4.67;2.33;;;;;;;;5095806;27;45414;-79
2022/06/09 02:01:02;;;;;;;;;4.67;3.33;;;;;;;;5098811;27;45196;-80
2022/06/09 02:03:30;;;;;;;;;4.00;3.00;;;;;;;;5096965;27;45293;-80
2022/06/09 02:05:58;;;;;;;;;3.00;2.00;;;;;;;;5091312;27;45533;-78
2022/06/09 02:08:23;;;;;;;;;5.33;2.00;;;;;;;;5094011;27;45357;-80
2022/06/09 02:11:09;;;;;;;;;6.33;2.00;;;;;;;;5091408;27;45358;-80
2022/06/09 02:13:39;;;;;;;;;8.33;3.00;;;;;;;;5085439;27;45579;-80
2022/06/09 02:16:05;;;;;;;;;7.67;4.67;;;;;;;;5095913;27;46013;-81
2022/06/09 02:18:35;;;;;;;;;4.00;3.67;;;;;;;;5088405;27;45425;-80
2022/06/09 02:21:02;;;;;;;;;2.00;2.00;;;;;;;;5085498;27;45473;-80
2022/06/09 02:23:28;;;;;;;;;3.00;1.67;;;;;;;;5089063;27;45559;-79
2022/06/09 02:25:53;;;;;;;;;5.00;1.33;;;;;;;;5099553;27;45824;-79
2022/06/09 02:28:19;;;;;;;;;2.00;2.00;;;;;;;;5100416;27;45208;-80
2022/06/09 02:30:45;;;;;;;;;4.67;3.00;;;;;;;;5099191;27;45256;-77
2022/06/09 02:33:10;;;;;;;;;3.00;2.00;;;;;;;;5096733;27;45352;-79
2022/06/09 02:35:37;;;;;;;;;7.00;3.00;;;;;;;;5093457;27;47309;-79
2022/06/09 02:38:02;;;;;;;;;5.33;3.00;;;;;;;;5092989;27;45308;-79
2022/06/09 02:40:28;;;;;;;;;3.00;3.00;;;;;;;;5088443;27;45468;-77
2022/06/09 02:42:53;;;;;;;;;4.67;2.33;;;;;;;;5096130;27;45445;-78
2022/06/09 02:45:19;;;;;;;;;5.33;3.00;;;;;;;;5086019;27;45559;-79
2022/06/09 02:47:44;;;;;;;;;5.00;4.00;;;;;;;;5097891;27;45221;-79
2022/06/09 02:50:10;;;;;;;;;3.00;2.00;;;;;;;;5090004;27;45388;-80
2022/06/09 02:52:35;;;;;;;;;4.00;3.00;;;;;;;;5088182;27;45634;-79
2022/06/09 02:55:01;;;;;;;;;5.33;3.33;;;;;;;;5089584;27;46707;-79
2022/06/09 02:57:26;;;;;;;;;5.33;2.33;;;;;;;;5094734;27;45487;-79
2022/06/09 02:59:52;;;;;;;;;5.33;4.00;;;;;;;;5090648;27;45230;-79
2022/06/09 03:02:18;;;;;;;;;4.00;4.00;;;;;;;;5089949;27;45173;-79
2022/06/09 03:04:43;;;;;;;;;5.00;3.67;;;;;;;;5081971;27;45295;-80
2022/06/09 03:07:08;;;;;;;;;4.00;3.00;;;;;;;;5102495;27;45304;-79
2022/06/09 03:09:33;;;;;;;;;10.33;5.00;;;;;;;;5086326;27;45767;-79
2022/06/09 03:11:58;;;;;;;;;4.67;2.67;;;;;;;;5096885;27;45190;-79
2022/06/09 03:14:24;;;;;;;;;8.00;6.00;;;;;;;;5085681;27;45210;-79
2022/06/09 03:16:50;;;;;;;;;6.00;5.00;;;;;;;;5099950;27;45206;-79
2022/06/09 03:19:15;;;;;;;;;5.33;4.00;;;;;;;;5091972;27;45394;-79
2022/06/09 03:21:41;;;;;;;;;10.00;6.00;;;;;;;;5099208;27;45352;-79
2022/06/09 03:24:06;;;;;;;;;4.67;4.00;;;;;;;;5086235;27;47072;-79
2022/06/09 03:26:31;;;;;;;;;7.00;3.33;;;;;;;;5097913;27;45306;-79
2022/06/09 03:28:57;;;;;;;;;7.33;4.00;;;;;;;;5089658;27;45367;-79
2022/06/09 03:31:22;;;;;;;;;4.33;2.00;;;;;;;;5090396;27;47244;-79
2022/06/09 03:33:49;;;;;;;;;3.33;3.00;;;;;;;;5080699;27;45882;-79
2022/06/09 03:36:15;;;;;;;;;8.00;3.67;;;;;;;;5095473;27;45354;-77
2022/06/09 03:38:40;;;;;;;;;2.00;2.00;;;;;;;;5086989;27;45476;-77
2022/06/09 03:41:07;;;;;;;;;5.00;4.00;;;;;;;;5090655;27;44769;-78
2022/06/09 03:43:32;;;;;;;;;3.00;3.00;;;;;;;;5091937;27;46505;-78
2022/06/09 03:45:57;;;;;;;;;5.00;3.00;;;;;;;;5103384;27;45414;-79
2022/06/09 03:48:23;;;;;;;;;4.33;4.33;;;;;;;;5094502;27;45584;-78
2022/06/09 03:50:48;;;;;;;;;5.00;3.00;;;;;;;;5092416;27;45359;-78
2022/06/09 03:53:13;;;;;;;;;7.67;4.67;;;;;;;;5088560;27;46338;-79
2022/06/09 03:55:38;;;;;;;;;2.33;2.33;;;;;;;;5087160;27;45265;-79
2022/06/09 03:58:03;;;;;;;;;5.00;5.00;;;;;;;;5093597;27;45244;-78
2022/06/09 04:00:30;;;;;;;;;4.00;4.00;;;;;;;;5087411;27;45933;-78
2022/06/09 04:02:56;;;;;;;;;7.00;5.00;;;;;;;;5087054;27;45456;-79
2022/06/09 04:05:21;;;;;;;;;4.00;3.00;;;;;;;;5086286;27;45296;-79
2022/06/09 04:07:47;;;;;;;;;2.00;2.00;;;;;;;;5086910;27;45582;-79
2022/06/09 04:10:17;;;;;;;;;3.33;0.33;;;;;;;;5096566;27;46239;-79
2022/06/09 04:12:42;;;;;;;;;6.00;4.00;;;;;;;;5090278;27;47551;-78
2022/06/09 04:15:08;;;;;;;;;6.33;3.67;;;;;;;;5088473;27;45329;-78
2022/06/09 04:17:34;;;;;;;;;8.67;4.00;;;;;;;;5093240;27;45607;-77
2022/06/09 04:19:59;;;;;;;;;5.50;5.00;;;;;;;;5085238;27;45350;-79
2022/06/09 04:22:25;;;;;;;;;5.67;2.33;;;;;;;;5082300;27;46094;-77
2022/06/09 04:24:51;;;;;;;;;4.67;3.00;;;;;;;;5099088;27;45434;-79
2022/06/09 04:27:16;;;;;;;;;7.33;4.00;;;;;;;;5091362;27;45322;-79
2022/06/09 04:29:41;;;;;;;;;8.00;4.00;;;;;;;;5081242;27;45266;-79
2022/06/09 04:32:07;;;;;;;;;6.33;4.67;;;;;;;;5089844;27;45409;-79
2022/06/09 04:34:32;;;;;;;;;4.33;4.00;;;;;;;;5087208;27;45240;-79
2022/06/09 04:36:57;;;;;;;;;7.67;4.67;;;;;;;;5088249;27;45455;-79
2022/06/09 04:39:22;;;;;;;;;7.25;3.00;;;;;;;;5082907;27;45582;-79
2022/06/09 04:41:48;;;;;;;;;6.00;5.00;;;;;;;;5092194;27;46048;-78
2022/06/09 04:44:13;;;;;;;;;4.67;4.00;;;;;;;;5086440;27;45343;-78
2022/06/09 04:46:38;;;;;;;;;9.00;5.00;;;;;;;;5082377;27;45346;-78
2022/06/09 04:49:03;;;;;;;;;7.00;4.00;;;;;;;;5087903;27;47104;-77
2022/06/09 04:51:31;;;;;;;;;10.33;5.00;;;;;;;;5085531;27;46250;-78
2022/06/09 04:53:57;;;;;;;;;8.67;4.67;;;;;;;;5092021;27;45246;-78
2022/06/09 04:56:22;;;;;;;;;2.33;2.33;;;;;;;;5082240;27;45339;-79
2022/06/09 04:58:48;;;;;;;;;4.33;4.00;;;;;;;;5089580;27;45213;-80
2022/06/09 05:01:18;;;;;;;;;8.67;3.00;;;;;;;;5092393;27;45362;-80
2022/06/09 05:03:44;;;;;;;;;5.00;4.33;;;;;;;;5089312;27;45424;-77
2022/06/09 05:06:10;;;;;;;;;4.67;3.00;;;;;;;;5094624;27;45269;-77
2022/06/09 05:08:35;;;;;;;;;4.00;3.67;;;;;;;;5087804;27;45744;-77
2022/06/09 05:11:00;;;;;;;;;5.33;3.00;;;;;;;;5088779;27;45642;-76
2022/06/09 05:13:25;;;;;;;;;6.00;6.00;;;;;;;;5089462;27;45444;-78
2022/06/09 05:15:52;;;;;;;;;7.33;3.00;;;;;;;;5086662;27;45284;-77
2022/06/09 05:18:18;;;;;;;;;4.00;3.00;;;;;;;;5093482;27;45912;-78
2022/06/09 05:20:43;;;;;;;;;5.33;4.33;;;;;;;;5093276;27;45360;-78
2022/06/09 05:23:09;;;;;;;;;7.33;4.00;;;;;;;;5091243;27;45358;-77
2022/06/09 05:25:34;;;;;;;;;5.00;4.00;;;;;;;;5094571;27;45274;-75
2022/06/09 05:27:59;;;;;;;;;8.67;3.33;;;;;;;;5094542;27;45317;-79
2022/06/09 05:30:25;;;;;;;;;5.67;4.00;;;;;;;;5082866;27;45318;-78
2022/06/09 05:32:51;;;;;;;;;6.00;4.00;;;;;;;;5082966;27;45437;-79
2022/06/09 05:35:16;;;;;;;;;4.67;3.67;;;;;;;;5086590;27;45479;-79
2022/06/09 05:45:58;;;;;;;;;7.00;4.00;;;;;;;;5087594;27;45370;-77
2022/06/09 05:48:23;;;;;;;;;7.67;6.00;;;;;;;;5084275;27;45955;-75
2022/06/09 05:50:49;;;;;;;;;3.67;3.67;;;;;;;;5092592;27;45424;-76
2022/06/09 05:53:14;;;;;;;;;6.00;6.00;;;;;;;;5087140;27;45355;-77
2022/06/09 05:55:40;;;;;;;;;4.33;3.67;;;;;;;;5095489;27;45519;-79
2022/06/09 05:58:05;;;;;;;;;6.00;4.00;;;;;;;;5088195;27;45661;-78
2022/06/09 06:00:30;;;;;;;;;5.33;5.00;;;;;;;;5096988;27;46562;-80
2022/06/09 06:02:57;;;;;;;;;8.67;4.00;;;;;;;;5092930;27;45420;-80
2022/06/09 06:08:06;;;;;;;;;5.67;4.67;;;;;;;;5091974;27;45445;-79
2022/06/09 06:10:32;;;;;;;;;3.00;3.00;;;;;;;;5086641;27;45371;-79
2022/06/09 06:12:57;;;;;;;;;6.00;4.67;;;;;;;;5093295;27;45217;-77
2022/06/09 06:15:22;;;;;;;;;6.00;4.33;;;;;;;;5082281;27;45226;-80
2022/06/09 06:17:47;;;;;;;;;9.00;5.00;;;;;;;;5086363;27;45512;-80
2022/06/09 06:20:12;;;;;;;;;8.00;3.67;;;;;;;;5093490;27;45479;-79
2022/06/09 06:22:38;;;;;;;;;5.00;4.00;;;;;;;;5095288;27;45274;-80
2022/06/09 06:25:06;;;;;;;;;4.33;4.00;;;;;;;;5085482;27;45272;-79
2022/06/09 06:27:31;;;;;;;;;4.33;4.33;;;;;;;;5086741;27;46132;-79
2022/06/09 06:29:56;;;;;;;;;7.00;5.00;;;;;;;;5082449;27;45383;-79
2022/06/09 06:32:21;;;;;;;;;9.33;6.00;;;;;;;;5085957;27;45903;-79
2022/06/09 06:34:46;;;;;;;;;8.67;4.33;;;;;;;;5097746;27;45438;-79
2022/06/09 06:37:12;;;;;;;;;5.67;3.67;;;;;;;;5097567;27;47136;-79
2022/06/09 06:39:37;;;;;;;;;6.00;5.00;;;;;;;;5099268;27;47019;-80
2022/06/09 06:42:02;;;;;;;;;8.67;5.00;;;;;;;;5099988;27;45518;-76
2022/06/09 06:44:28;;;;;;;;;6.67;6.33;;;;;;;;5094115;27;45459;-79
2022/06/09 06:46:53;;;;;;;;;6.00;5.00;;;;;;;;5094329;27;45844;-79
2022/06/09 06:49:18;;;;;;;;;4.00;4.00;;;;;;;;5089779;27;46124;-79
2022/06/09 06:51:43;;;;;;;;;7.67;5.00;;;;;;;;5097126;27;45656;-77
2022/06/09 06:54:11;;;;;;;;;8.67;6.00;;;;;;;;5090229;27;45476;-79
2022/06/09 06:56:36;;;;;;;;;5.67;3.33;;;;;;;;5098984;27;46802;-79
2022/06/09 06:59:01;;;;;;;;;6.67;5.00;;;;;;;;5100389;27;48298;-78
2022/06/09 07:01:27;;;;;;;;;7.33;5.67;;;;;;;;5098940;27;45251;-80
2022/06/09 07:03:53;;;;;;;;;4.33;4.33;;;;;;;;5083718;27;45381;-72
2022/06/09 07:06:19;;;;;;;;;4.33;4.00;;;;;;;;5083601;27;45272;-73
2022/06/09 07:08:44;;;;;;;;;9.33;5.33;;;;;;;;5087692;27;47409;-73
2022/06/09 07:11:09;;;;;;;;;5.00;4.00;;;;;;;;5093009;27;45238;-73
2022/06/09 07:13:36;;;;;;;;;8.00;6.33;;;;;;;;5090097;27;44772;-73
2022/06/09 07:16:01;;;;;;;;;6.67;5.00;;;;;;;;5090884;27;46555;-73
2022/06/09 07:18:29;;;;;;;;;6.67;4.67;;;;;;;;5092465;27;46106;-72
2022/06/09 07:20:55;;;;;;;;;7.00;6.00;;;;;;;;5093617;27;45317;-73
2022/06/09 07:23:20;;;;;;;;;5.00;3.67;;;;;;;;5089098;27;45228;-73
2022/06/09 07:25:45;;;;;;;;;6.67;5.00;;;;;;;;5094994;27;47153;-73
2022/06/09 07:28:10;;;;;;;;;9.67;7.00;;;;;;;;5091805;27;46106;-73
2022/06/09 07:30:36;;;;;;;;;10.00;7.00;;;;;;;;5088640;27;45292;-73
2022/06/09 07:33:01;;;;;;;;;6.00;4.33;;;;;;;;5087891;27;45358;-73
2022/06/09 07:35:27;;;;;;;;;6.00;4.33;;;;;;;;5084936;27;45417;-73
2022/06/09 07:37:53;;;;;;;;;6.33;4.67;;;;;;;;5087064;27;45379;-73
2022/06/09 07:40:19;;;;;;;;;7.00;5.33;;;;;;;;5088887;27;45306;-73
2022/06/09 07:42:44;;;;;;;;;9.67;5.67;;;;;;;;5095856;27;45290;-73
2022/06/09 07:45:10;;;;;;;;;4.33;4.33;;;;;;;;5087105;27;45340;-73
2022/06/09 07:47:37;;;;;;;;;6.33;5.33;;;;;;;;5096994;27;45485;-74
2022/06/09 07:50:03;;;;;;;;;4.67;4.67;;;;;;;;5082895;27;45379;-73
2022/06/09 07:52:28;;;;;;;;;4.33;4.33;;;;;;;;5087794;27;45404;-73
2022/06/09 07:54:54;;;;;;;;;8.00;6.33;;;;;;;;5089411;27;45382;-73
2022/06/09 07:57:19;;;;;;;;;8.33;5.67;;;;;;;;5093847;27;45478;-74
2022/06/09 07:59:44;;;;;;;;;5.67;4.67;;;;;;;;5089278;27;45345;-73
2022/06/09 08:02:10;;;;;;;;;8.00;5.00;;;;;;;;5098286;27;45294;-73
2022/06/09 08:04:36;;;;;;;;;4.67;4.67;;;;;;;;5081563;27;45493;-73
2022/06/09 08:07:02;;;;;;;;;4.00;4.00;;;;;;;;5091158;27;45550;-73
2022/06/09 08:09:27;;;;;;;;;6.67;4.67;;;;;;;;5086252;27;45400;-73
2022/06/09 08:11:53;;;;;;;;;6.00;6.00;;;;;;;;5095288;27;45511;-73
2022/06/09 08:14:19;;;;;;;;;8.00;4.33;;;;;;;;5083673;27;45486;-73
2022/06/09 08:16:45;;;;;;;;;9.00;5.00;;;;;;;;5098492;27;45921;-73
2022/06/09 08:19:10;;;;;;;;;6.00;4.00;;;;;;;;5093895;27;46297;-73
2022/06/09 08:21:35;;;;;;;;;5.67;5.67;;;;;;;;5097812;27;45206;-73
2022/06/09 08:24:01;;;;;;;;;4.00;4.00;;;;;;;;5083840;27;45227;-73
2022/06/09 08:26:26;;;;;;;;;6.33;6.00;;;;;;;;5096575;27;48690;-74
2022/06/09 08:28:52;;;;;;;;;7.33;5.00;;;;;;;;5086835;27;45529;-73
2022/06/09 08:31:17;;;;;;;;;4.67;4.67;;;;;;;;5094935;27;45399;-73
2022/06/09 08:33:42;;;;;;;;;4.67;4.00;;;;;;;;5082418;27;45709;-73
2022/06/09 08:36:07;;;;;;;;;8.33;4.00;;;;;;;;5087671;27;46214;-73
2022/06/09 08:38:33;;;;;;;;;8.67;6.00;;;;;;;;5091303;27;45448;-74
2022/06/09 08:41:08;;;;;;;;;4.67;4.67;;;;;;;;5088051;27;45315;-74
2022/06/09 08:43:39;;;;;;;;;4.33;4.33;;;;;;;;5090370;27;45339;-74
2022/06/09 08:46:24;;;;;;;;;4.75;3.75;;;;;;;;5081179;27;46327;-74
2022/06/09 08:48:51;;;;;;;;;6.00;5.25;;;;;;;;5088356;27;45315;-74
2022/06/09 08:51:27;;;;;;;;;4.00;4.00;;;;;;;;5085704;27;45352;-74
2022/06/09 08:53:54;;;;;;;;;3.50;3.50;;;;;;;;5090600;27;45371;-74
2022/06/09 08:56:26;;;;;;;;;5.00;3.00;;;;;;;;5102655;27;47207;-74
2022/06/09 08:58:58;;;;;;;;;2.75;2.75;;;;;;;;5096008;27;45272;-74
2022/06/09 09:01:29;;;;;;;;;2.00;2.00;;;;;;;;5098734;27;45459;-74
2022/06/09 09:03:57;;;;;;;;;3.50;2.75;;;;;;;;5089493;27;46161;-73
2022/06/09 09:06:34;;;;;;;;;4.00;3.00;;;;;;;;5093871;27;46290;-74
2022/06/09 09:09:22;;;;;;;;;6.25;1.75;;;;;;;;5095626;27;45275;-74
2022/06/09 09:11:53;;;;;;;;;2.25;2.25;;;;;;;;5085967;27;45256;-74
2022/06/09 09:14:21;;;;;;;;;1.50;1.50;;;;;;;;5088393;27;45610;-73
2022/06/09 09:16:52;;;;;;;;;4.75;2.00;;;;;;;;5101885;27;46219;-73
2022/06/09 09:19:18;;;;;;;;;5.25;2.25;;;;;;;;5088291;27;45347;-73
2022/06/09 09:21:47;;;;;;;;;4.50;2.00;;;;;;;;5083565;27;45328;-73
2022/06/09 09:24:17;;;;;;;;;4.25;3.00;;;;;;;;5094384;27;46259;-74
2022/06/09 09:26:45;;;;;;;;;3.00;3.00;;;;;;;;5085184;27;46578;-73
2022/06/09 09:29:19;;;;;;;;;4.00;2.50;;;;;;;;5084576;27;45240;-73
2022/06/09 09:31:47;;;;;;;;;3.75;3.75;;;;;;;;5098192;27;45731;-74
2022/06/09 09:34:17;;;;;;;;;2.25;2.00;;;;;;;;5092093;27;45925;-73
2022/06/09 09:36:44;;;;;;;;;5.00;2.00;;;;;;;;5096038;27;45257;-74
2022/06/09 09:39:15;;;;;;;;;4.00;1.75;;;;;;;;5091361;27;45396;-73
2022/06/09 09:41:41;;;;;;;;;3.25;2.25;;;;;;;;5091961;27;45517;-74
2022/06/09 09:44:14;;;;;;;;;1.50;1.50;;;;;;;;5090479;27;45756;-76
2022/06/09 09:46:40;;;;;;;;;4.75;4.00;;;;;;;;5100987;27;47279;-79
2022/06/09 09:49:15;;;;;;;;;5.00;2.75;;;;;;;;5095069;27;45296;-74
2022/06/09 09:51:41;;;;;;;;;3.00;3.00;;;;;;;;5089986;27;45318;-75
2022/06/09 09:54:09;;;;;;;;;4.00;2.75;;;;;;;;5097555;27;45441;-75
2022/06/09 09:56:35;;;;;;;;;4.25;2.00;;;;;;;;5093278;27;45429;-76
2022/06/09 09:59:02;;;;;;;;;3.25;2.50;;;;;;;;5095324;27;45390;-76
2022/06/09 10:01:29;;;;;;;;;2.25;1.00;;;;;;;;5100699;27;45464;-75
2022/06/09 10:09:44;;;;;;;;;1.25;1.25;;;;;;;;5086926;27;45287;-75
2022/06/09 10:12:23;;;;;;;;;2.50;1.50;;;;;;;;5096586;27;45351;-75
2022/06/09 10:15:07;;;;;;;;;2.75;2.00;;;;;;;;5089360;27;45393;-76
2022/06/09 10:17:51;;;;;;;;;3.50;1.75;;;;;;;;5083251;27;47555;-77
2022/06/09 10:20:28;;;;;;;;;1.75;1.75;;;;;;;;5089263;27;45412;-77
2022/06/09 10:23:02;;;;;;;;;1.75;1.75;;;;;;;;5090386;27;45434;-78
2022/06/09 10:25:30;;;;;;;;;4.00;2.50;;;;;;;;5085343;27;45281;-78
2022/06/09 10:28:14;;;;;;;;;3.00;1.75;;;;;;;;5092511;27;46781;-77
2022/06/09 10:30:46;;;;;;;;;2.50;1.00;;;;;;;;5084167;27;45192;-78
2022/06/09 10:33:27;;;;;;;;;1.75;1.75;;;;;;;;5092317;27;45587;-78
2022/06/09 10:35:58;;;;;;;;;2.50;1.00;;;;;;;;5088345;27;45445;-78
2022/06/09 10:38:29;;;;;;;;;2.25;2.00;;;;;;;;5092990;27;46271;-76
2022/06/09 10:40:56;;;;;;;;;3.00;2.00;;;;;;;;5092715;27;45941;-76
2022/06/09 10:43:38;;;;;;;;;3.25;1.25;;;;;;;;5093587;27;45507;-78
2022/06/09 10:46:22;;;;;;;;;2.00;2.00;;;;;;;;5095368;27;45467;-79
2022/06/09 10:57:28;;;;;;;;;7.00;2.00;;;;;;;;5092758;27;45475;-77
2022/06/09 11:00:01;;;;;;;;;3.00;3.00;;;;;;;;5084266;27;45307;-76
2022/06/09 11:02:27;;;;;;;;;2.50;2.25;;;;;;;;5095202;27;45412;-77
2022/06/09 11:04:52;;;;;;;;;1.50;1.50;;;;;;;;5084314;27;45235;-76
2022/06/09 11:07:27;;;;;;;;;2.25;2.25;;;;;;;;5092447;27;46002;-78
2022/06/09 11:09:52;;;;;;;;;5.00;1.75;;;;;;;;5098513;27;47440;-79
2022/06/09 11:12:18;;;;;;;;;2.00;2.00;;;;;;;;5093820;27;45449;-78
2022/06/09 11:14:46;;;;;;;;;4.25;2.75;;;;;;;;5089470;27;45333;-76
2022/06/09 11:17:11;;;;;;;;;4.00;2.25;;;;;;;;5098766;27;45204;-78
2022/06/09 11:19:44;;;;;;;;;1.75;1.75;;;;;;;;5087827;27;45600;-79
2022/06/09 11:22:12;;;;;;;;;2.00;2.00;;;;;;;;5091099;27;45345;-76
2022/06/09 11:24:41;;;;;;;;;2.00;2.00;;;;;;;;5086801;27;45398;-78
2022/06/09 11:27:09;;;;;;;;;2.00;2.00;;;;;;;;5090090;27;45979;-76
2022/06/09 11:29:48;;;;;;;;;2.50;2.25;;;;;;;;5088859;27;46224;-76
2022/06/09 11:32:23;;;;;;;;;2.00;2.00;;;;;;;;5093198;27;45295;-75
2022/06/09 11:35:04;;;;;;;;;3.25;3.00;;;;;;;;5091726;27;45333;-75
2022/06/09 11:37:46;;;;;;;;;2.00;2.00;;;;;;;;5094329;27;47237;-72
2022/06/09 11:40:23;;;;;;;;;4.25;2.75;;;;;;;;5098422;27;47429;-72
2022/06/09 11:42:52;;;;;;;;;3.00;1.00;;;;;;;;5088196;27;46287;-72
2022/06/09 11:45:20;;;;;;;;;4.25;2.00;;;;;;;;5090133;27;45342;-72
2022/06/09 11:47:45;;;;;;;;;1.50;1.00;;;;;;;;5090221;27;45435;-72
2022/06/09 11:50:15;;;;;;;;;1.75;1.75;;;;;;;;5086117;27;45554;-72
2022/06/09 11:52:46;;;;;;;;;0.80;0.80;;;;;;;;5093207;27;45460;-72
2022/06/09 11:55:28;;;;;;;;;2.00;2.00;;;;;;;;5089204;27;45696;-72
2022/06/09 11:57:53;;;;;;;;;2.75;2.00;;;;;;;;5087715;27;47004;-72
2022/06/09 12:00:18;;;;;;;;;2.00;2.00;;;;;;;;5082281;27;45488;-72
2022/06/09 12:02:47;;;;;;;;;3.75;1.75;;;;;;;;5085369;27;45481;-72
2022/06/09 12:05:22;;;;;;;;;1.00;1.00;;;;;;;;5086241;27;45342;-73
2022/06/09 12:07:50;;;;;;;;;2.00;2.00;;;;;;;;5085026;27;46107;-72
2022/06/09 12:10:33;;;;;;;;;4.75;2.00;;;;;;;;5085866;27;47983;-72
2022/06/09 12:13:16;;;;;;;;;2.40;2.40;;;;;;;;5089752;27;45431;-72
2022/06/09 12:15:47;;;;;;;;;1.00;1.00;;;;;;;;5087093;27;45341;-72
2022/06/09 12:18:13;;;;;;;;;1.00;1.00;;;;;;;;5094262;27;45357;-72
2022/06/09 12:20:56;;;;;;;;;4.25;1.50;;;;;;;;5088981;27;45421;-72
2022/06/09 12:23:29;;;;;;;;;1.40;1.40;;;;;;;;5081658;27;45381;-72
2022/06/09 12:26:07;;;;;;;;;1.60;1.60;;;;;;;;5085859;27;45304;-72
2022/06/09 12:28:50;;;;;;;;;2.60;1.40;;;;;;;;5090433;27;45358;-72
2022/06/09 12:31:15;;;;;;;;;2.60;1.00;;;;;;;;5080846;27;45460;-72
2022/06/09 12:33:53;;;;;;;;;1.50;1.50;;;;;;;;5081604;27;45220;-72
2022/06/09 12:36:32;;;;;;;;;0.40;0.20;;;;;;;;5086198;27;45348;-71
2022/06/09 12:38:58;;;;;;;;;1.80;0.00;;;;;;;;5086996;27;45477;-72
2022/06/09 12:41:40;;;;;;;;;0.75;0.75;;;;;;;;5086030;27;45224;-72
2022/06/09 12:44:15;;;;;;;;;1.60;1.60;;;;;;;;5086863;27;45300;-72
2022/06/09 12:46:41;;;;;;;;;1.00;1.00;;;;;;;;5093908;27;45496;-72
2022/06/09 12:49:14;;;;;;;;;3.75;1.25;;;;;;;;5091118;27;45610;-72
2022/06/09 12:51:39;;;;;;;;;0.60;0.60;;;;;;;;5091927;27;46127;-72
2022/06/09 12:54:07;;;;;;;;;1.25;1.25;;;;;;;;5095151;27;45449;-72
2022/06/09 12:56:44;;;;;;;;;2.00;1.75;;;;;;;;5091404;27;45340;-72
2022/06/09 12:59:28;;;;;;;;;0.00;0.00;;;;;;;;5082991;27;45386;-71
2022/06/09 13:01:58;;;;;;;;;2.00;0.80;;;;;;;;5096664;27;45229;-72
2022/06/09 13:04:24;;;;;;;;;0.80;0.80;;;;;;;;5083112;27;45498;-73
2022/06/09 13:06:50;;;;;;;;;3.20;2.00;;;;;;;;5096091;27;45414;-72
2022/06/09 13:09:33;;;;;;;;;0.25;0.25;;;;;;;;5085209;27;45741;-72
2022/06/09 13:14:47;;;;;;;;;0.80;0.80;;;;;;;;5081894;27;46179;-72
2022/06/09 13:17:15;;;;;;;;;1.25;1.00;;;;;;;;5080069;27;45318;-72
2022/06/09 13:19:41;;;;;;;;;0.25;0.25;;;;;;;;5082376;27;45336;-71
2022/06/09 13:22:08;;;;;;;;;1.00;1.00;;;;;;;;5083731;27;45249;-72
2022/06/09 13:24:38;;;;;;;;;0.80;0.80;;;;;;;;5084028;27;45513;-72
2022/06/09 13:27:07;;;;;;;;;0.60;0.00;;;;;;;;5087113;27;45332;-72
2022/06/09 13:29:37;;;;;;;;;1.80;0.20;;;;;;;;5096072;27;45351;-72
2022/06/09 13:32:08;;;;;;;;;0.80;0.80;;;;;;;;5095682;27;46269;-71
2022/06/09 13:34:35;;;;;;;;;2.00;0.00;;;;;;;;5087927;27;45484;-72
2022/06/09 13:37:02;;;;;;;;;1.80;0.80;;;;;;;;5092559;27;45453;-72
2022/06/09 13:39:27;;;;;;;;;2.80;1.00;;;;;;;;5088019;27;46064;-73
2022/06/09 13:42:01;;;;;;;;;3.50;1.00;;;;;;;;5084519;27;47225;-72
2022/06/09 13:44:30;;;;;;;;;1.60;1.00;;;;;;;;5091336;27;45477;-72
2022/06/09 13:46:55;;;;;;;;;1.40;1.00;;;;;;;;5094417;27;45266;-72
2022/06/09 13:49:27;;;;;;;;;1.50;1.00;;;;;;;;5092693;27;45181;-71
2022/06/09 13:51:52;;;;;;;;;1.20;0.80;;;;;;;;5102207;27;47235;-72
2022/06/09 13:54:21;;;;;;;;;1.00;1.00;;;;;;;;5097164;27;45965;-72
2022/06/09 13:56:47;;;;;;;;;0.80;0.60;;;;;;;;5098734;27;45215;-72
2022/06/09 13:59:12;;;;;;;;;0.00;0.00;;;;;;;;5086495;27;45249;-72
2022/06/09 14:01:37;;;;;;;;;1.00;1.00;;;;;;;;5090089;27;45716;-72
2022/06/09 14:04:07;;;;;;;;;1.00;1.00;;;;;;;;5088580;27;45515;-72
2022/06/09 14:06:33;;;;;;;;;0.00;0.00;;;;;;;;5096875;27;45215;-72
2022/06/09 14:08:58;;;;;;;;;0.00;0.00;;;;;;;;5094414;27;45989;-72
2022/06/09 14:11:25;;;;;;;;;1.25;1.00;;;;;;;;5096659;27;45278;-72
2022/06/09 14:13:53;;;;;;;;;0.80;0.80;;;;;;;;5083824;27;45848;-71
2022/06/09 14:16:24;;;;;;;;;1.20;1.20;;;;;;;;5084363;27;45494;-72
2022/06/09 14:18:49;;;;;;;;;3.40;2.20;;;;;;;;5083435;27;45463;-72
2022/06/09 14:21:14;;;;;;;;;3.00;1.00;;;;;;;;5085537;27;46131;-72
2022/06/09 14:23:39;;;;;;;;;0.00;0.00;;;;;;;;5083568;27;45440;-72
2022/06/09 14:26:07;;;;;;;;;0.25;0.25;;;;;;;;5086616;27;45228;-72
2022/06/09 14:28:33;;;;;;;;;0.60;0.60;;;;;;;;5090028;27;45497;-72
2022/06/09 14:30:58;;;;;;;;;0.25;0.25;;;;;;;;5090859;27;45390;-72
2022/06/09 14:33:24;;;;;;;;;0.25;0.00;;;;;;;;5094277;27;45402;-71
2022/06/09 14:35:49;;;;;;;;;2.00;0.00;;;;;;;;5091458;27;45362;-72
2022/06/09 14:38:15;;;;;;;;;3.00;0.00;;;;;;;;5089244;27;45341;-72
2022/06/09 14:40:42;;;;;;;;;0.50;0.50;;;;;;;;5090059;27;45436;-72
2022/06/09 14:43:07;;;;;;;;;0.60;0.00;;;;;;;;5092519;27;45390;-72
2022/06/09 14:45:34;;;;;;;;;0.00;0.00;;;;;;;;5094029;27;45346;-72
2022/06/09 14:47:59;;;;;;;;;1.80;0.40;;;;;;;;5093345;27;45181;-72
2022/06/09 14:50:25;;;;;;;;;0.25;0.25;;;;;;;;5083761;27;45296;-72
2022/06/09 14:52:50;;;;;;;;;1.25;0.00;;;;;;;;5086469;27;45599;-72
2022/06/09 14:55:16;;;;;;;;;3.00;0.00;;;;;;;;5086130;27;45220;-72
2022/06/09 14:57:42;;;;;;;;;2.25;0.00;;;;;;;;5094565;27;46890;-72
2022/06/09 15:00:13;;;;;;;;;0.60;0.20;;;;;;;;5083622;27;46080;-72
2022/06/09 15:02:38;;;;;;;;;0.00;0.00;;;;;;;;5097537;27;45516;-72
2022/06/09 15:05:06;;;;;;;;;0.25;0.25;;;;;;;;5085405;27;45294;-72
2022/06/09 15:07:32;;;;;;;;;0.00;0.00;;;;;;;;5090412;27;46352;-72
2022/06/09 15:09:57;;;;;;;;;0.00;0.00;;;;;;;;5087580;27;48341;-71
2022/06/09 15:12:23;;;;;;;;;1.00;1.00;;;;;;;;5093448;27;45434;-72
2022/06/09 15:14:48;;;;;;;;;1.25;0.25;;;;;;;;5089204;27;45832;-71
2022/06/09 15:17:14;;;;;;;;;2.25;0.75;;;;;;;;5098257;27;45307;-71